createdAt,value
2023-03-23T15:58:23.780Z,99904.75
2023-03-23T16:01:14.325Z,99910.63
2023-03-23T16:04:02.540Z,99906.75
2023-03-23T16:06:48.715Z,99900.41
2023-03-23T16:09:33.555Z,99904.31
2023-03-23T16:12:18.352Z,99883.78
2023-03-23T16:15:03.433Z,99888.72
2023-03-23T16:17:48.326Z,99883.66
2023-03-23T16:20:33.318Z,99900.69
2023-03-23T16:23:18.460Z,99909.75
2023-03-23T16:26:04.133Z,99900.09
2023-03-23T16:28:49.581Z,99909.13
2023-03-23T16:31:34.296Z,99912.63
2023-03-23T16:34:19.457Z,99908.97
2023-03-23T16:37:04.422Z,99915.53
2023-03-23T16:39:49.312Z,99916.78
2023-03-23T16:42:34.092Z,99907.34
2023-03-23T16:45:20.192Z,99904.09
2023-03-23T16:48:05.963Z,99912.09
2023-03-23T16:50:52.269Z,99908.78
2023-03-23T16:53:37.428Z,99910.06
2023-03-23T16:56:22.816Z,99912.72
2023-03-23T16:59:07.614Z,99918.47
2023-03-23T17:01:52.723Z,99916.22
2023-03-23T17:04:38.004Z,99918.88
2023-03-23T17:07:23.006Z,99928.16
2023-03-23T17:10:10.902Z,99935.13
2023-03-23T17:12:57.372Z,99935.31
2023-03-23T17:15:46.542Z,99942.47
2023-03-23T17:18:32.041Z,99939.41
2023-03-23T17:21:17.091Z,99940.66
2023-03-23T17:24:02.554Z,99936.69
2023-03-23T17:26:47.775Z,99938.13
2023-03-23T17:29:33.273Z,99933.44
2023-03-23T17:32:18.733Z,99932.00
2023-03-23T17:35:05.319Z,99934.25
2023-03-23T17:37:50.237Z,99933.63
2023-03-23T17:40:35.044Z,99932.38
2023-03-23T17:43:20.456Z,99930.97
2023-03-23T17:46:06.532Z,99934.63
2023-03-23T17:48:51.688Z,99938.34
2023-03-23T17:51:36.774Z,99942.44
2023-03-23T17:54:21.867Z,99937.09
2023-03-23T17:57:06.670Z,99941.19
2023-03-23T17:59:51.647Z,99948.78
2023-03-23T18:02:37.062Z,99944.09
2023-03-23T18:05:24.364Z,99945.09
2023-03-23T18:08:09.587Z,99942.84
2023-03-23T18:10:56.661Z,99933.00
2023-03-23T18:13:41.737Z,99935.66
2023-03-23T18:16:27.004Z,99924.56
2023-03-23T18:19:12.200Z,99920.69
2023-03-23T18:21:57.170Z,99923.97
2023-03-23T18:24:42.049Z,99913.50
2023-03-23T18:27:27.131Z,99908.56
2023-03-23T18:30:12.057Z,99915.78
2023-03-23T18:32:57.164Z,99915.94
2023-03-23T18:35:42.630Z,99909.78
2023-03-23T18:38:28.969Z,99911.63
2023-03-23T18:41:14.234Z,99910.19
2023-03-23T18:43:59.152Z,99907.31
2023-03-23T18:46:43.964Z,99900.78
2023-03-23T18:49:30.161Z,99903.22
2023-03-23T18:52:15.094Z,99896.88
2023-03-23T18:55:00.716Z,99894.41
2023-03-23T18:57:45.612Z,99886.19
2023-03-23T19:00:30.837Z,99888.66
2023-03-23T19:03:16.893Z,99879.22
2023-03-23T19:06:04.291Z,99869.63
2023-03-23T19:08:51.764Z,99860.16
2023-03-23T19:11:36.688Z,99858.50
2023-03-23T19:14:22.542Z,99857.06
2023-03-23T19:17:08.612Z,99853.00
2023-03-23T19:19:53.791Z,99850.53
2023-03-23T19:22:39.875Z,99842.94
2023-03-23T19:25:26.318Z,99845.38
2023-03-23T19:29:00.544Z,99853.59
2023-03-23T19:31:17.090Z,99851.13
2023-03-23T19:34:01.971Z,99860.34
2023-03-23T19:36:54.429Z,99864.06
2023-03-23T19:39:42.910Z,99866.91
2023-03-23T19:42:27.909Z,99868.97
2023-03-23T19:45:12.822Z,99878.00
2023-03-23T19:47:58.392Z,99869.38
2023-03-23T19:50:48.725Z,99871.44
2023-03-23T19:53:34.719Z,99861.56
2023-03-23T19:56:21.600Z,99866.94
2023-03-23T19:59:09.432Z,99861.78
2023-03-23T20:01:54.925Z,99856.47
2023-03-23T20:04:40.866Z,99856.88
2023-03-23T20:07:26.984Z,99861.56
2023-03-23T20:10:11.878Z,99858.69
2023-03-23T20:12:56.904Z,99850.06
2023-03-23T20:15:41.691Z,99846.81
2023-03-23T20:18:27.495Z,99846.38
2023-03-23T20:21:19.614Z,99843.50
2023-03-23T20:24:05.174Z,99834.88
2023-03-23T20:26:50.152Z,99830.38
2023-03-23T20:29:35.141Z,99818.28
2023-03-23T20:32:20.200Z,99808.44
2023-03-23T20:35:08.084Z,99819.50
2023-03-23T20:37:53.544Z,99805.81
2023-03-23T20:40:38.348Z,99802.13
2023-03-23T20:43:29.522Z,99801.28
2023-03-23T20:46:14.484Z,99801.88
2023-03-23T20:49:00.787Z,99800.28
2023-03-23T20:51:46.437Z,99803.31
2023-03-23T20:54:31.517Z,99789.44
2023-03-23T20:57:17.117Z,99790.44
2023-03-23T21:00:06.359Z,99782.50
2023-03-23T21:02:54.006Z,99779.63
2023-03-23T21:05:41.301Z,99776.78
2023-03-23T21:08:26.411Z,99774.50
2023-03-23T21:11:19.121Z,99780.88
2023-03-23T21:14:04.997Z,99785.59
2023-03-23T21:16:50.169Z,99783.56
2023-03-23T21:19:35.238Z,99787.44
2023-03-23T21:22:20.102Z,99771.91
2023-03-23T21:25:06.198Z,99779.44
2023-03-23T21:27:54.666Z,99771.69
2023-03-23T21:30:45.171Z,99773.50
2023-03-23T21:33:30.716Z,99769.03
2023-03-23T21:36:15.896Z,99776.78
2023-03-23T21:39:02.121Z,99772.28
2023-03-23T21:41:49.581Z,99764.72
2023-03-23T21:44:38.949Z,99766.16
2023-03-23T21:47:24.078Z,99771.06
2023-03-23T21:50:11.644Z,99753.66
2023-03-23T21:52:56.253Z,99750.38
2023-03-23T21:55:44.712Z,99759.81
2023-03-23T21:58:30.596Z,99759.19
2023-03-23T22:01:16.115Z,99750.38
2023-03-23T22:04:01.251Z,99763.50
2023-03-23T22:06:47.758Z,99755.72
2023-03-23T22:09:34.253Z,99756.53
2023-03-23T22:12:19.939Z,99754.50
2023-03-23T22:15:08.060Z,99742.19
2023-03-23T22:17:53.754Z,99748.13
2023-03-23T22:20:40.231Z,99741.38
2023-03-23T22:23:25.407Z,99752.22
2023-03-23T22:26:12.001Z,99743.22
2023-03-23T22:28:58.815Z,99743.63
2023-03-23T22:31:44.602Z,99729.66
2023-03-23T22:34:29.768Z,99728.22
2023-03-23T22:37:16.219Z,99720.69
2023-03-23T22:40:00.969Z,99721.28
2023-03-23T22:42:46.227Z,99714.53
2023-03-23T22:45:31.450Z,99719.44
2023-03-23T22:48:17.386Z,99706.53
2023-03-23T22:51:03.563Z,99709.00
2023-03-23T22:53:49.600Z,99706.94
2023-03-23T22:56:36.934Z,99702.66
2023-03-23T22:59:21.727Z,99692.22
2023-03-23T23:02:06.624Z,99690.16
2023-03-23T23:04:52.190Z,99683.19
2023-03-23T23:07:37.686Z,99679.50
2023-03-23T23:10:22.812Z,99683.22
2023-03-23T23:13:08.873Z,99672.97
2023-03-23T23:15:56.341Z,99666.00
2023-03-23T23:18:41.195Z,99655.56
2023-03-23T23:21:26.492Z,99668.47
2023-03-23T23:24:11.280Z,99651.88
2023-03-23T23:26:58.361Z,99658.00
2023-03-23T23:29:43.521Z,99647.38
2023-03-23T23:32:28.976Z,99641.66
2023-03-23T23:35:13.997Z,99645.13
2023-03-23T23:37:58.853Z,99642.47
2023-03-23T23:40:45.939Z,99641.44
2023-03-23T23:43:31.353Z,99645.72
2023-03-23T23:46:16.476Z,99637.13
2023-03-23T23:49:01.586Z,99615.66
2023-03-23T23:51:46.513Z,99615.22
2023-03-23T23:54:31.633Z,99610.56
2023-03-23T23:57:17.209Z,99608.91
